DW8305 Weather Reports


time (UTC)temp
C
wind
direction
speed
KPH
gust
KPH
rain 1hr
cm
rain 24hr
cm
rain mn
cm
humidity
%
barometer
mb
20200217002316 7 270 19.3 33.8 0.08 0.53 0.13 89 1005.8
20200217001315 7 248 16.1 25.7 0.10 0.53 0.13 90 1006.0
20200217000316 7 248 22.5 29.0 0.10 0.53 0.13 91 1005.3
20200216235316 8 248 14.5 30.6 0.10 0.51 0.10 90 1005.6
20200216234316 8 270 14.5 22.5 0.10 0.51 0.08 90 1005.7
20200216233316 8 248 16.1 27.4 0.08 0.46 0.05 90 1005.6
20200216232316 8 248 14.5 25.7 0.08 0.46 0.05 89 1005.3
20200216231316 8 248 14.5 22.5 0.05 0.43 0.03 89 1005.3
20200216230316 8 248 12.9 19.3 0.05 0.43 0.03 89 1005.2
20200216225316 8 248 16.1 20.9 0.05 0.43 0.43 88 1005.1
20200216224316 8 248 16.1 27.4 0.05 0.41 0.41 87 1005.0
20200216223316 8 248 17.7 27.4 0.05 0.38 0.38 87 1004.6
20200216222316 8 270 12.9 22.5 0.08 0.38 0.38 87 1004.2
20200216221316 8 270 24.1 32.2 0.10 0.38 0.38 89 1004.1
20200216220316 8 270 20.9 29.0 0.13 0.38 0.38 86 1003.4
20200216215316 8 270 22.5 45.1 0.15 0.38 0.38 91 1004.3
20200216214316 8 270 16.1 24.1 0.15 0.33 0.33 92 1003.8
20200216213316 9 270 14.5 29.0 0.13 0.33 0.33 92 1003.4
20200216212316 9 270 9.7 16.1 0.10 0.30 0.30 92 1003.2
20200216211316 9 270 11.3 17.7 0.08 0.28 0.28 91 1003.0
20200216210316 10 270 16.1 27.4 0.05 0.25 0.25 91 1002.9
20200216205316 10 270 14.5 19.3 0.05 0.23 0.23 90 1002.0
20200216204316 10 270 16.1 24.1 0.03 0.20 0.20 89 1001.8
20200216203317 10 270 11.3 14.5 0.03 0.20 0.20 90 1001.5
20200216202316 10 293 20.9 33.8 0.03 0.20 0.20 89 1001.0
20200216201316 11 293 12.9 22.5 0.05 0.20 0.20 86 1000.7
20200216200316 13 270 24.1 40.2 0.05 0.20 0.20 78 999.9
20200216195316 18 248 30.6 43.5 0.05 0.18 0.18 53 997.3
20200216194316 18 270 22.5 41.8 0.05 0.18 0.18 53 996.8
20200216193316 18 270 32.2 53.1 0.05 0.18 0.18 53 996.7
20200216192316 18 248 29.0 54.7 0.05 0.18 0.18 52 996.9
20200216191316 18 248 19.3 25.7 0.05 0.15 0.15 53 996.6
20200216190317 18 225 29.0 45.1 0.05 0.15 0.15 52 996.8
20200216185316 18 225 30.6 46.7 0.05 0.15 0.15 52 996.7
20200216184316 18 225 35.4 56.3 0.05 0.15 0.15 52 996.6
20200216183316 18 248 27.4 37.0 0.03 0.13 0.13 53 996.6
20200216182316 18 203 30.6 48.3 0.03 0.13 0.13 53 996.6
20200216181316 17 225 29.0 45.1 0.03 0.10 0.10 54 996.8
20200216180316 17 225 24.1 38.6 0.03 0.10 0.10 55 996.8
20200216175316 17 225 24.1 32.2 0.03 0.10 0.10 55 997.3
20200216174316 17 225 20.9 33.8 0.03 0.10 0.10 57 997.5
20200216173316 17 225 17.7 30.6 0.03 0.10 0.10 57 997.9
20200216172316 17 225 27.4 41.8 0.03 0.10 0.10 58 997.9
20200216171316 17 248 19.3 32.2 0.00 0.08 0.08 59 998.2
20200216170316 17 270 17.7 29.0 0.00 0.08 0.08 59 998.4
20200216165316 17 225 22.5 29.0 0.00 0.08 0.08 60 998.6
20200216164316 17 248 25.7 41.8 0.00 0.08 0.08 60 998.7
20200216163316 17 225 17.7 24.1 0.00 0.08 0.08 60 998.8
20200216162316 17 225 22.5 32.2 0.00 0.08 0.08 60 998.8
20200216161316 17 225 20.9 30.6 0.00 0.08 0.08 60 998.8
20200216160316 17 270 16.1 29.0 0.00 0.08 0.08 60 999.0
20200216155316 17 248 14.5 19.3 0.00 0.08 0.08 60 999.1
20200216154316 16 225 16.1 27.4 0.00 0.08 0.08 62 999.4
20200216153316 16 225 9.7 12.9 0.00 0.08 0.08 63 999.3
20200216152316 16 225 12.9 20.9 0.00 0.08 0.08 63 999.6
20200216151316 16 203 12.9 20.9 0.00 0.08 0.08 63 999.8
20200216150316 16 203 16.1 22.5 0.00 0.08 0.08 62 1000.1
20200216145316 17 248 11.3 19.3 0.00 0.08 0.08 59 1000.3
20200216144316 17 225 20.9 30.6 0.00 0.08 0.08 59 1000.5
20200216143316 17 225 20.9 35.4 0.00 0.08 0.08 60 1000.4
20200216142316 17 225 25.7 43.5 0.00 0.08 0.08 61 1000.7
20200216141316 17 225 16.1 22.5 0.00 0.08 0.08 61 1000.8
20200216140316 16 225 20.9 33.8 0.00 0.08 0.08 62 1000.9
20200216135316 16 248 22.5 35.4 0.00 0.08 0.08 62 1001.1
20200216134316 16 248 17.7 27.4 0.00 0.08 0.08 62 1001.2
20200216133316 16 248 22.5 37.0 0.00 0.08 0.08 61 1001.2
20200216132316 16 225 24.1 32.2 0.00 0.08 0.08 62 1001.5
20200216131316 16 225 17.7 30.6 0.00 0.08 0.08 62 1001.3
20200216130316 16 248 17.7 27.4 0.00 0.08 0.08 62 1001.7
20200216125316 16 270 19.3 27.4 0.00 0.08 0.08 62 1002.0
20200216124316 16 270 19.3 32.2 0.00 0.08 0.08 62 1001.9
20200216123316 16 248 22.5 29.0 0.00 0.08 0.08 62 1001.9
20200216122316 16 248 25.7 40.2 0.00 0.08 0.08 63 1002.2
20200216121316 16 248 19.3 57.9 0.00 0.08 0.08 63 1002.0
20200216120316 16 248 24.1 33.8 0.00 0.08 0.08 64 1002.4
20200216115316 16 225 24.1 30.6 0.00 0.08 0.08 65 1002.7
20200216114316 15 225 14.5 27.4 0.00 0.08 0.08 67 1002.9
20200216113316 15 270 17.7 29.0 0.00 0.08 0.08 67 1003.0
20200216112316 15 248 25.7 40.2 0.00 0.08 0.08 68 1003.2
20200216111316 15 225 30.6 38.6 0.00 0.08 0.08 68 1003.3
20200216110316 15 225 14.5 20.9 0.00 0.08 0.08 69 1003.1
20200216105316 15 248 27.4 46.7 0.00 0.08 0.08 70 1003.4
20200216104316 15 248 24.1 33.8 0.00 0.08 0.08 70 1003.3
20200216103316 15 225 20.9 29.0 0.00 0.08 0.08 72 1003.5
20200216102316 14 270 16.1 30.6 0.00 0.08 0.08 74 1003.8
20200216101316 14 225 24.1 46.7 0.00 0.08 0.08 76 1003.9
20200216100317 13 225 20.9 32.2 0.00 0.08 0.08 78 1004.0
20200216095316 12 225 12.9 16.1 0.00 0.08 0.08 82 1004.1
20200216094316 12 225 12.9 25.7 0.00 0.08 0.08 83 1004.1
20200216093316 12 225 11.3 17.7 0.00 0.08 0.08 84 1004.0
20200216092316 12 248 16.1 25.7 0.00 0.08 0.08 83 1004.1
20200216091316 12 225 11.3 19.3 0.00 0.08 0.08 82 1004.1
20200216090316 12 203 12.9 19.3 0.00 0.08 0.08 82 1004.2
20200216085316 12 248 17.7 27.4 0.00 0.08 0.08 83 1004.4
20200216084316 11 203 17.7 30.6 0.00 0.08 0.08 84 1004.3
20200216083316 11 225 11.3 19.3 0.00 0.08 0.08 86 1004.3
20200216082316 11 225 14.5 22.5 0.00 0.08 0.08 87 1004.5
20200216081316 11 203 8.0 9.7 0.00 0.08 0.08 90 1004.4
20200216080316 11 225 14.5 20.9 0.00 0.08 0.08 96 1004.5
20200216075316 10 225 12.9 20.9 0.03 0.08 0.08 97 1004.6
20200216074316 10 225 8.0 14.5 0.05 0.08 0.08 97 1004.6
20200216073316 10 203 12.9 17.7 0.05 0.08 0.08 97 1004.7
20200216072316 10 225 17.7 24.1 0.05 0.08 0.08 97 1004.9
20200216071316 10 180 8.0 14.5 0.05 0.08 0.08 96 1005.0
20200216070316 10 225 8.0 16.1 0.05 0.08 0.08 94 1005.2
20200216065316 11 225 11.3 22.5 0.05 0.05 0.05 79 1005.4
20200216064316 11 270 9.7 17.7 0.05 0.05 0.05 76 1005.5
20200216063316 11 225 6.4 11.3 0.05 0.05 0.05 76 1005.6
20200216062316 11 203 9.7 14.5 0.05 0.05 0.05 76 1005.7
20200216061316 11 225 9.7 17.7 0.05 0.05 0.05 77 1005.7
20200216060316 11 203 12.9 20.9 0.05 0.05 0.05 79 1005.8
20200216055316 11 225 9.7 16.1 0.03 0.03 0.03 77 1006.1
20200216054316 11 225 11.3 17.7 0.00 0.00 0.00 75 1006.1
20200216053316 11 203 12.9 24.1 0.00 0.00 0.00 73 1006.0
20200216052316 12 225 12.9 19.3 0.00 0.00 0.00 72 1006.1
20200216051316 11 203 9.7 11.3 0.00 0.00 0.00 72 1006.2
20200216050316 11 203 17.7 24.1 0.00 0.00 0.00 72 1006.3
20200216045316 11 203 9.7 19.3 0.00 0.00 0.00 72 1006.5
20200216044316 12 203 9.7 12.9 0.00 0.00 0.00 71 1006.5
20200216043316 12 248 9.7 14.5 0.00 0.00 0.00 71 1006.8
20200216042316 12 203 8.0 16.1 0.00 0.00 0.00 71 1007.1
20200216041316 12 203 9.7 14.5 0.00 0.00 0.00 71 1007.3
20200216040316 12 270 9.7 12.9 0.00 0.00 0.00 70 1007.3
20200216035316 12 158 12.9 24.1 0.00 0.00 0.00 70 1007.4
20200216034316 12 203 9.7 25.7 0.00 0.00 0.00 70 1007.5
20200216033316 12 225 14.5 22.5 0.00 0.00 0.00 70 1007.7
20200216032316 12 225 12.9 17.7 0.00 0.00 0.00 69 1008.0
20200216031316 12 225 12.9 20.9 0.00 0.00 0.00 69 1008.0
20200216030316 12 225 11.3 20.9 0.00 0.00 0.00 69 1008.0
20200216025316 12 248 6.4 11.3 0.00 0.00 0.00 68 1008.0
20200216024316 12 225 17.7 24.1 0.00 0.00 0.00 68 1008.1
20200216023316 12 225 9.7 14.5 0.00 0.00 0.00 68 1007.9
20200216022316 12 225 11.3 16.1 0.00 0.00 0.00 68 1008.2
20200216021316 12 225 11.3 16.1 0.00 0.00 0.00 67 1008.2
20200216020316 12 225 16.1 25.7 0.00 0.00 0.00 67 1008.4
20200216015316 12 225 16.1 24.1 0.00 0.00 0.00 67 1008.7
20200216014316 12 225 16.1 24.1 0.00 0.00 0.00 67 1008.8
20200216013316 12 225 11.3 20.9 0.00 0.00 0.00 67 1009.0
20200216012316 12 248 16.1 22.5 0.00 0.00 0.00 67 1009.1
20200216011316 11 225 11.3 19.3 0.00 0.00 0.00 67 1009.0
20200216010316 11 225 11.3 17.7 0.00 0.00 0.00 67 1009.2
20200216005316 11 225 11.3 20.9 0.00 0.00 0.00 67 1009.4
20200216004315 11 203 9.7 14.5 0.00 0.00 0.00 68 1009.5
20200216003316 11 225 12.9 19.3 0.00 0.00 0.00 68 1009.2